Huvudsida
METAR-TAF:

METAR-TAF

Flygplatser :

Emmens flygbas

Emmen, Schweiz

latitud: 47-05-32N, longitud: 8-18-16E, höjd: 426 m

Aktuellt väderrapport

Denna rapport gjordes för 36 minuter sedan, klockan 13:50 UTC
Vind 6 kt från syd, varierande mellan syd/sydost och syd/sydväst
Temperatur 12°C
Fuktighet 50%
Tryck 1028 hPa
Sikt 10 km eller mer

METAR: LSME 221350Z AUTO 18006KT 150V210 9999NDV NCD 12/02 Q1028 RMK

Tid: 15:26 (14:26 UTC)


TAF: saknas

Aktuella väderrapporter och prognoser från 4000 flygplatser (METAR- och TAF-rapporter).

De tillgängliga stationerna syns som gula och röda prickar på kartan.

För musen över prickarna för att se namnen på stationerna.

Klicka sedan för att få väderrapporter och prognoser.

För att ändra kartan: Klicka på de gröna knapparna med ett svart kors på för att zooma in; den gröna knappen med ett streck på för att zooma ut; eller på de gröna pilarna för angränsande kartor.


METAR-TAF: